sensor_id;sensor_type;location;lat;lon;timestamp;temperature;humidity
33655;DHT22;19997;51.274;22.506;2023-02-01T00:01:05;3.10;99.90
33655;DHT22;19997;51.274;22.506;2023-02-01T00:03:32;3.10;99.90
33655;DHT22;19997;51.274;22.506;2023-02-01T00:06:00;3.00;99.90
33655;DHT22;19997;51.274;22.506;2023-02-01T00:08:27;3.00;99.90
33655;DHT22;19997;51.274;22.506;2023-02-01T00:11:03;3.00;99.90
33655;DHT22;19997;51.274;22.506;2023-02-01T00:13:32;3.00;99.90
33655;DHT22;19997;51.274;22.506;2023-02-01T00:16:04;2.90;99.90
33655;DHT22;19997;51.274;22.506;2023-02-01T00:18:31;2.90;99.90
33655;DHT22;19997;51.274;22.506;2023-02-01T00:20:58;2.90;99.90
33655;DHT22;19997;51.274;22.506;2023-02-01T00:23:26;2.90;99.90
33655;DHT22;19997;51.274;22.506;2023-02-01T00:25:53;2.90;99.90
33655;DHT22;19997;51.274;22.506;2023-02-01T00:28:21;2.90;99.90
33655;DHT22;19997;51.274;22.506;2023-02-01T00:30:56;2.90;99.90
33655;DHT22;19997;51.274;22.506;2023-02-01T00:33:23;2.90;99.90
33655;DHT22;19997;51.274;22.506;2023-02-01T00:35:50;2.80;99.90
33655;DHT22;19997;51.274;22.506;2023-02-01T00:38:17;2.80;99.90
33655;DHT22;19997;51.274;22.506;2023-02-01T00:40:45;2.80;99.90
33655;DHT22;19997;51.274;22.506;2023-02-01T00:43:12;2.90;99.90
33655;DHT22;19997;51.274;22.506;2023-02-01T00:45:40;2.90;99.90
33655;DHT22;19997;51.274;22.506;2023-02-01T00:48:07;2.90;99.90
33655;DHT22;19997;51.274;22.506;2023-02-01T00:50:34;2.90;99.90
33655;DHT22;19997;51.274;22.506;2023-02-01T00:53:01;2.90;99.90
33655;DHT22;19997;51.274;22.506;2023-02-01T00:55:28;2.90;99.90
33655;DHT22;19997;51.274;22.506;2023-02-01T00:57:55;3.00;99.90
33655;DHT22;19997;51.274;22.506;2023-02-01T01:00:23;3.00;99.90
33655;DHT22;19997;51.274;22.506;2023-02-01T01:02:51;3.00;99.90
33655;DHT22;19997;51.274;22.506;2023-02-01T01:05:18;2.90;99.90
33655;DHT22;19997;51.274;22.506;2023-02-01T01:07:46;3.00;99.90
33655;DHT22;19997;51.274;22.506;2023-02-01T01:10:13;3.00;99.90
33655;DHT22;19997;51.274;22.506;2023-02-01T01:12:40;3.00;99.90
33655;DHT22;19997;51.274;22.506;2023-02-01T01:15:08;3.00;99.90
33655;DHT22;19997;51.274;22.506;2023-02-01T01:17:35;3.00;99.90
33655;DHT22;19997;51.274;22.506;2023-02-01T01:20:04;3.10;99.90
33655;DHT22;19997;51.274;22.506;2023-02-01T01:22:31;3.10;99.90
33655;DHT22;19997;51.274;22.506;2023-02-01T01:24:58;3.10;99.90
33655;DHT22;19997;51.274;22.506;2023-02-01T01:27:25;3.10;99.90
33655;DHT22;19997;51.274;22.506;2023-02-01T01:29:52;3.00;99.90
33655;DHT22;19997;51.274;22.506;2023-02-01T01:32:19;3.00;99.90
33655;DHT22;19997;51.274;22.506;2023-02-01T01:34:46;3.00;99.90
33655;DHT22;19997;51.274;22.506;2023-02-01T01:37:15;2.90;99.90
33655;DHT22;19997;51.274;22.506;2023-02-01T01:39:42;2.90;99.90
33655;DHT22;19997;51.274;22.506;2023-02-01T01:42:10;2.90;99.90
33655;DHT22;19997;51.274;22.506;2023-02-01T01:45:00;2.90;99.90
33655;DHT22;19997;51.274;22.506;2023-02-01T01:47:32;2.90;99.90
33655;DHT22;19997;51.274;22.506;2023-02-01T01:50:02;2.90;99.90
33655;DHT22;19997;51.274;22.506;2023-02-01T01:52:32;2.90;99.90
33655;DHT22;19997;51.274;22.506;2023-02-01T01:54:59;3.00;99.90
33655;DHT22;19997;51.274;22.506;2023-02-01T01:57:30;3.00;99.90
33655;DHT22;19997;51.274;22.506;2023-02-01T02:00:03;3.00;99.90
33655;DHT22;19997;51.274;22.506;2023-02-01T02:02:41;3.10;99.90
33655;DHT22;19997;51.274;22.506;2023-02-01T02:05:14;3.10;99.90
33655;DHT22;19997;51.274;22.506;2023-02-01T02:07:46;3.20;99.90
33655;DHT22;19997;51.274;22.506;2023-02-01T02:10:14;3.20;99.90
33655;DHT22;19997;51.274;22.506;2023-02-01T02:12:43;3.20;99.90
33655;DHT22;19997;51.274;22.506;2023-02-01T02:15:13;3.30;99.90
33655;DHT22;19997;51.274;22.506;2023-02-01T02:17:46;3.30;99.90
33655;DHT22;19997;51.274;22.506;2023-02-01T02:20:31;3.30;99.90
33655;DHT22;19997;51.274;22.506;2023-02-01T02:23:45;3.30;99.90
33655;DHT22;19997;51.274;22.506;2023-02-01T02:26:47;3.30;99.90
33655;DHT22;19997;51.274;22.506;2023-02-01T02:32:52;3.30;99.90
33655;DHT22;19997;51.274;22.506;2023-02-01T02:35:26;3.40;99.90
33655;DHT22;19997;51.274;22.506;2023-02-01T02:38:02;3.40;99.90
33655;DHT22;19997;51.274;22.506;2023-02-01T02:40:36;3.40;99.90
33655;DHT22;19997;51.274;22.506;2023-02-01T02:43:11;3.40;99.90
33655;DHT22;19997;51.274;22.506;2023-02-01T02:46:03;3.40;99.90
33655;DHT22;19997;51.274;22.506;2023-02-01T02:48:53;3.50;99.90
33655;DHT22;19997;51.274;22.506;2023-02-01T02:51:27;3.50;99.90
33655;DHT22;19997;51.274;22.506;2023-02-01T02:54:15;3.50;99.90
33655;DHT22;19997;51.274;22.506;2023-02-01T02:57:04;3.50;99.90
33655;DHT22;19997;51.274;22.506;2023-02-01T02:59:52;3.60;99.90
33655;DHT22;19997;51.274;22.506;2023-02-01T03:02:39;3.60;99.90
33655;DHT22;19997;51.274;22.506;2023-02-01T03:05:24;3.60;99.90
33655;DHT22;19997;51.274;22.506;2023-02-01T03:08:02;3.60;99.90
33655;DHT22;19997;51.274;22.506;2023-02-01T03:10:38;3.60;99.90
33655;DHT22;19997;51.274;22.506;2023-02-01T03:13:11;3.60;99.90
33655;DHT22;19997;51.274;22.506;2023-02-01T03:15:40;3.60;99.90
33655;DHT22;19997;51.274;22.506;2023-02-01T03:18:15;3.60;99.90
33655;DHT22;19997;51.274;22.506;2023-02-01T03:20:47;3.60;99.90
33655;DHT22;19997;51.274;22.506;2023-02-01T03:23:20;3.60;99.90
33655;DHT22;19997;51.274;22.506;2023-02-01T03:25:50;3.60;99.90
33655;DHT22;19997;51.274;22.506;2023-02-01T03:28:19;3.60;99.90
33655;DHT22;19997;51.274;22.506;2023-02-01T03:30:49;3.60;99.90
33655;DHT22;19997;51.274;22.506;2023-02-01T03:33:19;3.60;99.90
33655;DHT22;19997;51.274;22.506;2023-02-01T03:35:56;3.60;99.90
33655;DHT22;19997;51.274;22.506;2023-02-01T03:38:29;3.50;99.90
33655;DHT22;19997;51.274;22.506;2023-02-01T03:41:03;3.50;99.90
33655;DHT22;19997;51.274;22.506;2023-02-01T03:43:39;3.50;99.90
33655;DHT22;19997;51.274;22.506;2023-02-01T03:46:14;3.50;99.90
33655;DHT22;19997;51.274;22.506;2023-02-01T03:48:44;3.50;99.90
33655;DHT22;19997;51.274;22.506;2023-02-01T03:51:13;3.50;99.90
33655;DHT22;19997;51.274;22.506;2023-02-01T03:53:43;3.50;99.90
33655;DHT22;19997;51.274;22.506;2023-02-01T03:56:12;3.50;99.90
33655;DHT22;19997;51.274;22.506;2023-02-01T03:58:39;3.50;99.90
33655;DHT22;19997;51.274;22.506;2023-02-01T04:01:06;3.50;99.90
33655;DHT22;19997;51.274;22.506;2023-02-01T04:03:37;3.60;99.90
33655;DHT22;19997;51.274;22.506;2023-02-01T04:06:04;3.60;99.90
33655;DHT22;19997;51.274;22.506;2023-02-01T04:08:32;3.60;99.90
33655;DHT22;19997;51.274;22.506;2023-02-01T04:11:01;3.60;99.90
33655;DHT22;19997;51.274;22.506;2023-02-01T04:13:27;3.70;99.90
33655;DHT22;19997;51.274;22.506;2023-02-01T04:15:55;3.70;99.90
33655;DHT22;19997;51.274;22.506;2023-02-01T04:18:22;3.60;99.90
33655;DHT22;19997;51.274;22.506;2023-02-01T04:20:49;3.60;99.90
33655;DHT22;19997;51.274;22.506;2023-02-01T04:23:16;3.60;99.90
33655;DHT22;19997;51.274;22.506;2023-02-01T04:25:43;3.50;99.90
33655;DHT22;19997;51.274;22.506;2023-02-01T04:28:11;3.50;99.90
33655;DHT22;19997;51.274;22.506;2023-02-01T04:30:38;3.50;99.90
33655;DHT22;19997;51.274;22.506;2023-02-01T04:33:05;3.50;99.90
33655;DHT22;19997;51.274;22.506;2023-02-01T04:35:33;3.50;99.90
33655;DHT22;19997;51.274;22.506;2023-02-01T04:38:01;3.50;99.90
33655;DHT22;19997;51.274;22.506;2023-02-01T04:40:30;3.50;99.90
33655;DHT22;19997;51.274;22.506;2023-02-01T04:42:57;3.40;99.90
33655;DHT22;19997;51.274;22.506;2023-02-01T04:45:26;3.50;99.90
33655;DHT22;19997;51.274;22.506;2023-02-01T04:47:53;3.50;99.90
33655;DHT22;19997;51.274;22.506;2023-02-01T04:50:20;3.50;99.90
33655;DHT22;19997;51.274;22.506;2023-02-01T04:52:47;3.50;99.90
33655;DHT22;19997;51.274;22.506;2023-02-01T04:55:14;3.50;99.90
33655;DHT22;19997;51.274;22.506;2023-02-01T04:57:41;3.50;99.90
33655;DHT22;19997;51.274;22.506;2023-02-01T05:00:10;3.50;99.90
33655;DHT22;19997;51.274;22.506;2023-02-01T05:02:40;3.50;99.90
33655;DHT22;19997;51.274;22.506;2023-02-01T05:05:07;3.50;99.90
33655;DHT22;19997;51.274;22.506;2023-02-01T05:07:35;3.40;99.90
33655;DHT22;19997;51.274;22.506;2023-02-01T05:10:04;3.40;99.90
33655;DHT22;19997;51.274;22.506;2023-02-01T05:12:31;3.40;99.90
33655;DHT22;19997;51.274;22.506;2023-02-01T05:15:15;3.40;99.90
33655;DHT22;19997;51.274;22.506;2023-02-01T05:17:44;3.50;99.90
33655;DHT22;19997;51.274;22.506;2023-02-01T05:20:11;3.50;99.90
33655;DHT22;19997;51.274;22.506;2023-02-01T05:22:38;3.40;99.90
33655;DHT22;19997;51.274;22.506;2023-02-01T05:25:06;3.50;99.90
33655;DHT22;19997;51.274;22.506;2023-02-01T05:27:33;3.50;99.90
33655;DHT22;19997;51.274;22.506;2023-02-01T05:30:00;3.50;99.90
33655;DHT22;19997;51.274;22.506;2023-02-01T05:32:27;3.50;99.90
33655;DHT22;19997;51.274;22.506;2023-02-01T05:34:58;3.50;99.90
33655;DHT22;19997;51.274;22.506;2023-02-01T05:37:25;3.50;99.90
33655;DHT22;19997;51.274;22.506;2023-02-01T05:39:52;3.50;99.90
33655;DHT22;19997;51.274;22.506;2023-02-01T05:42:20;3.50;99.90
33655;DHT22;19997;51.274;22.506;2023-02-01T05:44:47;3.50;99.90
33655;DHT22;19997;51.274;22.506;2023-02-01T05:47:14;3.50;99.90
33655;DHT22;19997;51.274;22.506;2023-02-01T05:49:41;3.50;99.90
33655;DHT22;19997;51.274;22.506;2023-02-01T05:52:10;3.50;99.90
33655;DHT22;19997;51.274;22.506;2023-02-01T05:54:37;3.50;99.90
33655;DHT22;19997;51.274;22.506;2023-02-01T05:57:04;3.50;99.90
33655;DHT22;19997;51.274;22.506;2023-02-01T05:59:31;3.50;99.90
33655;DHT22;19997;51.274;22.506;2023-02-01T06:01:58;3.50;99.90
33655;DHT22;19997;51.274;22.506;2023-02-01T06:04:25;3.50;99.90
33655;DHT22;19997;51.274;22.506;2023-02-01T06:06:52;3.50;99.90
33655;DHT22;19997;51.274;22.506;2023-02-01T06:09:21;3.50;99.90
33655;DHT22;19997;51.274;22.506;2023-02-01T06:11:48;3.50;99.90
33655;DHT22;19997;51.274;22.506;2023-02-01T06:14:16;3.50;99.90
33655;DHT22;19997;51.274;22.506;2023-02-01T06:16:43;3.50;99.90
33655;DHT22;19997;51.274;22.506;2023-02-01T06:19:11;3.50;99.90
33655;DHT22;19997;51.274;22.506;2023-02-01T06:21:38;3.50;99.90
33655;DHT22;19997;51.274;22.506;2023-02-01T06:24:06;3.60;99.90
33655;DHT22;19997;51.274;22.506;2023-02-01T06:26:34;3.60;99.90
33655;DHT22;19997;51.274;22.506;2023-02-01T06:29:01;3.60;99.90
33655;DHT22;19997;51.274;22.506;2023-02-01T06:31:28;3.60;99.90
33655;DHT22;19997;51.274;22.506;2023-02-01T06:33:57;3.60;99.90
33655;DHT22;19997;51.274;22.506;2023-02-01T06:36:24;3.70;99.90
33655;DHT22;19997;51.274;22.506;2023-02-01T06:38:51;3.70;99.90
33655;DHT22;19997;51.274;22.506;2023-02-01T06:41:18;3.70;99.90
33655;DHT22;19997;51.274;22.506;2023-02-01T06:43:47;3.80;99.90
33655;DHT22;19997;51.274;22.506;2023-02-01T06:46:14;3.80;99.90
33655;DHT22;19997;51.274;22.506;2023-02-01T06:48:41;3.80;99.90
33655;DHT22;19997;51.274;22.506;2023-02-01T06:51:19;3.80;99.90
33655;DHT22;19997;51.274;22.506;2023-02-01T06:53:46;3.80;99.90
33655;DHT22;19997;51.274;22.506;2023-02-01T06:56:13;3.90;99.90
33655;DHT22;19997;51.274;22.506;2023-02-01T06:58:40;3.90;99.90
33655;DHT22;19997;51.274;22.506;2023-02-01T07:01:09;3.90;99.90
33655;DHT22;19997;51.274;22.506;2023-02-01T07:03:37;3.90;99.90
33655;DHT22;19997;51.274;22.506;2023-02-01T07:06:05;3.90;99.90
33655;DHT22;19997;51.274;22.506;2023-02-01T07:08:33;3.90;99.90
33655;DHT22;19997;51.274;22.506;2023-02-01T07:11:02;3.90;99.90
33655;DHT22;19997;51.274;22.506;2023-02-01T07:13:29;4.00;99.90
33655;DHT22;19997;51.274;22.506;2023-02-01T07:15:58;4.00;99.90
33655;DHT22;19997;51.274;22.506;2023-02-01T07:18:27;4.00;99.90
33655;DHT22;19997;51.274;22.506;2023-02-01T07:20:55;4.00;99.90
33655;DHT22;19997;51.274;22.506;2023-02-01T07:23:23;4.00;99.90
33655;DHT22;19997;51.274;22.506;2023-02-01T07:25:53;4.00;99.90
33655;DHT22;19997;51.274;22.506;2023-02-01T07:28:21;4.00;99.90
33655;DHT22;19997;51.274;22.506;2023-02-01T07:30:48;4.10;99.90
33655;DHT22;19997;51.274;22.506;2023-02-01T07:33:18;4.10;99.90
33655;DHT22;19997;51.274;22.506;2023-02-01T07:35:48;4.10;99.90
33655;DHT22;19997;51.274;22.506;2023-02-01T07:38:15;4.10;99.90
33655;DHT22;19997;51.274;22.506;2023-02-01T07:40:43;4.20;99.90
33655;DHT22;19997;51.274;22.506;2023-02-01T07:43:10;4.20;99.90
33655;DHT22;19997;51.274;22.506;2023-02-01T07:45:37;4.10;99.90
33655;DHT22;19997;51.274;22.506;2023-02-01T07:48:04;4.10;99.90
33655;DHT22;19997;51.274;22.506;2023-02-01T07:50:31;4.20;99.90
33655;DHT22;19997;51.274;22.506;2023-02-01T07:53:00;4.20;99.90
33655;DHT22;19997;51.274;22.506;2023-02-01T07:55:28;4.30;99.90
33655;DHT22;19997;51.274;22.506;2023-02-01T07:57:57;4.40;99.90
33655;DHT22;19997;51.274;22.506;2023-02-01T08:00:25;4.40;99.90
33655;DHT22;19997;51.274;22.506;2023-02-01T08:03:09;4.50;99.90
33655;DHT22;19997;51.274;22.506;2023-02-01T08:05:36;4.50;99.90
33655;DHT22;19997;51.274;22.506;2023-02-01T08:08:05;4.50;99.90
33655;DHT22;19997;51.274;22.506;2023-02-01T08:10:33;4.50;99.90
33655;DHT22;19997;51.274;22.506;2023-02-01T08:13:01;4.50;99.90
33655;DHT22;19997;51.274;22.506;2023-02-01T08:15:29;4.50;99.90
33655;DHT22;19997;51.274;22.506;2023-02-01T08:17:56;4.50;99.90
33655;DHT22;19997;51.274;22.506;2023-02-01T08:20:24;4.70;99.90
33655;DHT22;19997;51.274;22.506;2023-02-01T08:22:53;4.70;99.90
33655;DHT22;19997;51.274;22.506;2023-02-01T08:25:22;4.80;99.90
33655;DHT22;19997;51.274;22.506;2023-02-01T08:27:49;4.90;99.90
33655;DHT22;19997;51.274;22.506;2023-02-01T08:30:17;5.00;99.90
33655;DHT22;19997;51.274;22.506;2023-02-01T08:32:44;5.10;99.90
33655;DHT22;19997;51.274;22.506;2023-02-01T08:35:11;5.10;99.90
33655;DHT22;19997;51.274;22.506;2023-02-01T08:37:38;5.10;99.50
33655;DHT22;19997;51.274;22.506;2023-02-01T08:40:07;5.10;98.60
33655;DHT22;19997;51.274;22.506;2023-02-01T08:42:36;5.00;98.30
33655;DHT22;19997;51.274;22.506;2023-02-01T08:45:19;5.00;98.10
33655;DHT22;19997;51.274;22.506;2023-02-01T08:47:47;5.00;97.80
33655;DHT22;19997;51.274;22.506;2023-02-01T08:50:15;5.10;97.20
33655;DHT22;19997;51.274;22.506;2023-02-01T08:52:43;5.10;97.40
33655;DHT22;19997;51.274;22.506;2023-02-01T08:55:10;5.10;97.40
33655;DHT22;19997;51.274;22.506;2023-02-01T08:57:39;5.10;97.00
33655;DHT22;19997;51.274;22.506;2023-02-01T09:00:08;5.10;96.50
33655;DHT22;19997;51.274;22.506;2023-02-01T09:02:36;5.10;96.30
33655;DHT22;19997;51.274;22.506;2023-02-01T09:05:03;5.10;95.90
33655;DHT22;19997;51.274;22.506;2023-02-01T09:07:31;5.10;95.80
33655;DHT22;19997;51.274;22.506;2023-02-01T09:09:58;5.20;95.80
33655;DHT22;19997;51.274;22.506;2023-02-01T09:12:27;5.20;95.50
33655;DHT22;19997;51.274;22.506;2023-02-01T09:14:56;5.20;95.60
33655;DHT22;19997;51.274;22.506;2023-02-01T09:17:24;5.30;95.30
33655;DHT22;19997;51.274;22.506;2023-02-01T09:19:51;5.40;95.20
33655;DHT22;19997;51.274;22.506;2023-02-01T09:22:18;5.50;94.70
33655;DHT22;19997;51.274;22.506;2023-02-01T09:24:45;5.40;94.20
33655;DHT22;19997;51.274;22.506;2023-02-01T09:27:12;5.40;93.80
33655;DHT22;19997;51.274;22.506;2023-02-01T09:29:40;5.40;93.60
33655;DHT22;19997;51.274;22.506;2023-02-01T09:32:08;5.40;93.80
33655;DHT22;19997;51.274;22.506;2023-02-01T09:34:35;5.40;93.70
33655;DHT22;19997;51.274;22.506;2023-02-01T09:37:02;5.40;93.50
33655;DHT22;19997;51.274;22.506;2023-02-01T09:39:29;5.40;93.30
33655;DHT22;19997;51.274;22.506;2023-02-01T09:42:12;5.40;93.10
33655;DHT22;19997;51.274;22.506;2023-02-01T09:44:52;5.40;93.20
33655;DHT22;19997;51.274;22.506;2023-02-01T09:47:24;5.40;93.00
33655;DHT22;19997;51.274;22.506;2023-02-01T09:49:55;5.40;93.20
33655;DHT22;19997;51.274;22.506;2023-02-01T09:52:30;5.50;93.20
33655;DHT22;19997;51.274;22.506;2023-02-01T09:55:00;5.60;93.00
33655;DHT22;19997;51.274;22.506;2023-02-01T09:57:40;5.80;92.60
33655;DHT22;19997;51.274;22.506;2023-02-01T10:00:16;5.90;92.00
33655;DHT22;19997;51.274;22.506;2023-02-01T10:02:45;5.90;91.80
33655;DHT22;19997;51.274;22.506;2023-02-01T10:05:15;5.90;91.90
33655;DHT22;19997;51.274;22.506;2023-02-01T10:07:48;5.90;92.10
33655;DHT22;19997;51.274;22.506;2023-02-01T10:10:20;5.80;92.30
33655;DHT22;19997;51.274;22.506;2023-02-01T10:13:17;5.70;92.80
33655;DHT22;19997;51.274;22.506;2023-02-01T10:16:22;5.60;93.40
33655;DHT22;19997;51.274;22.506;2023-02-01T10:19:18;5.50;94.60
33655;DHT22;19997;51.274;22.506;2023-02-01T10:21:54;5.40;95.40
33655;DHT22;19997;51.274;22.506;2023-02-01T10:24:43;5.50;96.40
33655;DHT22;19997;51.274;22.506;2023-02-01T10:27:14;5.40;96.90
33655;DHT22;19997;51.274;22.506;2023-02-01T10:29:45;5.40;97.80
33655;DHT22;19997;51.274;22.506;2023-02-01T10:32:15;5.30;98.70
33655;DHT22;19997;51.274;22.506;2023-02-01T10:34:47;5.30;99.70
33655;DHT22;19997;51.274;22.506;2023-02-01T10:37:24;5.20;99.90
33655;DHT22;19997;51.274;22.506;2023-02-01T10:39:54;5.10;99.90
33655;DHT22;19997;51.274;22.506;2023-02-01T10:42:25;5.10;99.90
33655;DHT22;19997;51.274;22.506;2023-02-01T10:44:53;5.20;99.90
33655;DHT22;19997;51.274;22.506;2023-02-01T10:47:21;5.30;99.90
33655;DHT22;19997;51.274;22.506;2023-02-01T10:49:55;5.40;99.90
33655;DHT22;19997;51.274;22.506;2023-02-01T10:52:32;5.40;99.90
33655;DHT22;19997;51.274;22.506;2023-02-01T10:58:03;5.40;99.90
33655;DHT22;19997;51.274;22.506;2023-02-01T11:00:39;5.50;99.90
33655;DHT22;19997;51.274;22.506;2023-02-01T11:03:33;5.50;99.90
33655;DHT22;19997;51.274;22.506;2023-02-01T11:06:04;5.50;99.90
33655;DHT22;19997;51.274;22.506;2023-02-01T11:08:43;5.50;99.70
33655;DHT22;19997;51.274;22.506;2023-02-01T11:11:11;5.70;99.00
33655;DHT22;19997;51.274;22.506;2023-02-01T11:13:39;5.70;98.20
33655;DHT22;19997;51.274;22.506;2023-02-01T11:16:11;5.80;96.80
33655;DHT22;19997;51.274;22.506;2023-02-01T11:18:39;5.80;96.00
33655;DHT22;19997;51.274;22.506;2023-02-01T11:21:09;5.90;95.40
33655;DHT22;19997;51.274;22.506;2023-02-01T11:23:42;5.90;94.40
33655;DHT22;19997;51.274;22.506;2023-02-01T11:26:12;6.00;93.70
33655;DHT22;19997;51.274;22.506;2023-02-01T11:28:40;5.90;93.50
33655;DHT22;19997;51.274;22.506;2023-02-01T11:31:12;5.90;93.50
33655;DHT22;19997;51.274;22.506;2023-02-01T11:33:47;5.90;93.20
33655;DHT22;19997;51.274;22.506;2023-02-01T11:36:18;5.90;93.50
33655;DHT22;19997;51.274;22.506;2023-02-01T11:38:52;6.00;92.90
33655;DHT22;19997;51.274;22.506;2023-02-01T11:41:22;6.00;92.90
33655;DHT22;19997;51.274;22.506;2023-02-01T11:43:55;6.00;92.70
33655;DHT22;19997;51.274;22.506;2023-02-01T11:46:28;6.10;92.90
33655;DHT22;19997;51.274;22.506;2023-02-01T11:48:57;6.20;92.80
33655;DHT22;19997;51.274;22.506;2023-02-01T11:51:49;6.30;92.60
33655;DHT22;19997;51.274;22.506;2023-02-01T11:57:42;6.30;91.90
33655;DHT22;19997;51.274;22.506;2023-02-01T12:00:34;6.40;91.80
33655;DHT22;19997;51.274;22.506;2023-02-01T12:03:31;6.40;91.30
33655;DHT22;19997;51.274;22.506;2023-02-01T12:06:08;6.30;91.40
33655;DHT22;19997;51.274;22.506;2023-02-01T12:08:54;6.20;91.20
33655;DHT22;19997;51.274;22.506;2023-02-01T12:11:33;6.10;91.30
33655;DHT22;19997;51.274;22.506;2023-02-01T12:14:18;6.00;91.60
33655;DHT22;19997;51.274;22.506;2023-02-01T12:16:56;5.90;91.80
33655;DHT22;19997;51.274;22.506;2023-02-01T12:19:57;5.90;92.10
33655;DHT22;19997;51.274;22.506;2023-02-01T12:22:36;5.80;92.20
33655;DHT22;19997;51.274;22.506;2023-02-01T12:25:22;5.80;92.10
33655;DHT22;19997;51.274;22.506;2023-02-01T12:28:12;5.80;92.30
33655;DHT22;19997;51.274;22.506;2023-02-01T12:30:58;5.70;92.40
33655;DHT22;19997;51.274;22.506;2023-02-01T12:33:39;5.70;92.60
33655;DHT22;19997;51.274;22.506;2023-02-01T12:36:14;5.70;92.70
33655;DHT22;19997;51.274;22.506;2023-02-01T12:38:52;5.80;93.00
33655;DHT22;19997;51.274;22.506;2023-02-01T12:41:46;5.80;92.80
33655;DHT22;19997;51.274;22.506;2023-02-01T12:44:24;5.80;92.70
33655;DHT22;19997;51.274;22.506;2023-02-01T12:47:17;5.80;92.30
33655;DHT22;19997;51.274;22.506;2023-02-01T12:49:50;5.80;92.20
33655;DHT22;19997;51.274;22.506;2023-02-01T12:52:23;5.80;92.20
33655;DHT22;19997;51.274;22.506;2023-02-01T12:54:57;5.80;92.20
33655;DHT22;19997;51.274;22.506;2023-02-01T12:57:32;5.80;92.30
33655;DHT22;19997;51.274;22.506;2023-02-01T13:02:44;5.80;92.10
33655;DHT22;19997;51.274;22.506;2023-02-01T13:05:17;5.80;92.10
33655;DHT22;19997;51.274;22.506;2023-02-01T13:07:48;5.80;92.10
33655;DHT22;19997;51.274;22.506;2023-02-01T13:10:20;5.90;92.10
33655;DHT22;19997;51.274;22.506;2023-02-01T13:12:54;5.90;92.10
33655;DHT22;19997;51.274;22.506;2023-02-01T13:15:28;5.90;92.40
33655;DHT22;19997;51.274;22.506;2023-02-01T13:17:59;5.80;92.80
33655;DHT22;19997;51.274;22.506;2023-02-01T13:20:31;5.70;93.10
33655;DHT22;19997;51.274;22.506;2023-02-01T13:23:02;5.70;93.30
33655;DHT22;19997;51.274;22.506;2023-02-01T13:25:35;5.70;93.60
33655;DHT22;19997;51.274;22.506;2023-02-01T13:28:10;5.60;93.90
33655;DHT22;19997;51.274;22.506;2023-02-01T13:30:51;5.60;94.20
33655;DHT22;19997;51.274;22.506;2023-02-01T13:33:32;5.50;94.60
33655;DHT22;19997;51.274;22.506;2023-02-01T13:36:21;5.50;95.20
33655;DHT22;19997;51.274;22.506;2023-02-01T13:41:58;5.40;95.80
33655;DHT22;19997;51.274;22.506;2023-02-01T13:44:32;5.50;96.00
33655;DHT22;19997;51.274;22.506;2023-02-01T13:47:03;5.40;96.30
33655;DHT22;19997;51.274;22.506;2023-02-01T13:49:38;5.40;96.70
33655;DHT22;19997;51.274;22.506;2023-02-01T13:52:36;5.40;97.00
33655;DHT22;19997;51.274;22.506;2023-02-01T13:55:25;5.40;97.20
33655;DHT22;19997;51.274;22.506;2023-02-01T13:58:03;5.40;97.40
33655;DHT22;19997;51.274;22.506;2023-02-01T14:00:33;5.40;97.50
33655;DHT22;19997;51.274;22.506;2023-02-01T14:03:12;5.40;97.30
33655;DHT22;19997;51.274;22.506;2023-02-01T14:06:00;5.40;97.20
33655;DHT22;19997;51.274;22.506;2023-02-01T14:11:50;5.30;97.50
33655;DHT22;19997;51.274;22.506;2023-02-01T14:14:41;5.30;97.40
33655;DHT22;19997;51.274;22.506;2023-02-01T14:17:37;5.30;97.40
33655;DHT22;19997;51.274;22.506;2023-02-01T14:23:24;5.30;97.20
33655;DHT22;19997;51.274;22.506;2023-02-01T14:26:07;5.20;97.50
33655;DHT22;19997;51.274;22.506;2023-02-01T14:28:39;5.20;97.90
33655;DHT22;19997;51.274;22.506;2023-02-01T14:31:25;5.20;98.10
33655;DHT22;19997;51.274;22.506;2023-02-01T14:33:58;5.20;98.30
33655;DHT22;19997;51.274;22.506;2023-02-01T14:36:40;5.10;98.80
33655;DHT22;19997;51.274;22.506;2023-02-01T14:39:23;5.10;99.20
33655;DHT22;19997;51.274;22.506;2023-02-01T14:41:54;5.10;99.00
33655;DHT22;19997;51.274;22.506;2023-02-01T14:44:30;5.10;99.30
33655;DHT22;19997;51.274;22.506;2023-02-01T14:47:26;5.10;99.50
33655;DHT22;19997;51.274;22.506;2023-02-01T14:52:45;5.10;99.50
33655;DHT22;19997;51.274;22.506;2023-02-01T14:55:17;5.20;99.20
33655;DHT22;19997;51.274;22.506;2023-02-01T14:57:49;5.10;99.10
33655;DHT22;19997;51.274;22.506;2023-02-01T15:00:22;5.10;99.10
33655;DHT22;19997;51.274;22.506;2023-02-01T15:02:51;5.00;98.90
33655;DHT22;19997;51.274;22.506;2023-02-01T15:05:29;5.00;99.10
33655;DHT22;19997;51.274;22.506;2023-02-01T15:08:00;5.00;99.20
33655;DHT22;19997;51.274;22.506;2023-02-01T15:10:32;5.00;99.00
33655;DHT22;19997;51.274;22.506;2023-02-01T15:13:00;5.00;98.70
33655;DHT22;19997;51.274;22.506;2023-02-01T15:15:27;4.90;98.90
33655;DHT22;19997;51.274;22.506;2023-02-01T15:17:59;4.90;99.30
33655;DHT22;19997;51.274;22.506;2023-02-01T15:20:29;5.00;99.30
33655;DHT22;19997;51.274;22.506;2023-02-01T15:22:58;5.00;99.20
33655;DHT22;19997;51.274;22.506;2023-02-01T15:25:27;4.90;99.40
33655;DHT22;19997;51.274;22.506;2023-02-01T15:27:55;4.90;99.70
33655;DHT22;19997;51.274;22.506;2023-02-01T15:30:24;4.90;99.90
33655;DHT22;19997;51.274;22.506;2023-02-01T15:33:04;4.90;99.90
33655;DHT22;19997;51.274;22.506;2023-02-01T15:35:47;5.00;99.90
33655;DHT22;19997;51.274;22.506;2023-02-01T15:38:35;5.00;99.90
33655;DHT22;19997;51.274;22.506;2023-02-01T15:41:06;5.00;99.90
33655;DHT22;19997;51.274;22.506;2023-02-01T15:43:37;5.00;99.90
33655;DHT22;19997;51.274;22.506;2023-02-01T15:46:09;4.80;99.90
33655;DHT22;19997;51.274;22.506;2023-02-01T15:48:42;4.70;99.90
33655;DHT22;19997;51.274;22.506;2023-02-01T15:51:19;4.70;99.90
33655;DHT22;19997;51.274;22.506;2023-02-01T15:53:50;4.60;99.90
33655;DHT22;19997;51.274;22.506;2023-02-01T15:56:23;4.60;99.90
33655;DHT22;19997;51.274;22.506;2023-02-01T15:58:53;4.60;99.90
33655;DHT22;19997;51.274;22.506;2023-02-01T16:01:21;4.60;99.90
33655;DHT22;19997;51.274;22.506;2023-02-01T16:03:49;4.60;99.90
33655;DHT22;19997;51.274;22.506;2023-02-01T16:06:31;4.60;99.90
33655;DHT22;19997;51.274;22.506;2023-02-01T16:09:03;4.50;99.90
33655;DHT22;19997;51.274;22.506;2023-02-01T16:11:41;4.50;99.90
33655;DHT22;19997;51.274;22.506;2023-02-01T16:14:08;4.50;99.90
33655;DHT22;19997;51.274;22.506;2023-02-01T16:16:35;4.50;99.90
33655;DHT22;19997;51.274;22.506;2023-02-01T16:19:02;4.50;99.90
33655;DHT22;19997;51.274;22.506;2023-02-01T16:21:31;4.50;99.90
33655;DHT22;19997;51.274;22.506;2023-02-01T16:23:58;4.50;99.90
33655;DHT22;19997;51.274;22.506;2023-02-01T16:26:29;4.50;99.90